aviador You're here:

CYDN Decoded Metar

DAUPHIN in MB, CANADA
Report Time2018-07-19 03:00:00
UTC Time2018-07-19 03:50:30
Flight Rules vfr VFR
Wind150° at 03 kt
W.Decomp.*RWY 14: 3.0 kt HW 0.2 kt RCW
RWY 20: 1.6 kt HW 2.5 kt LCW
RWY 08: 1.4 kt HW 2.7 kt RCW
W.Rank150° ranks 32
Current wind is below 150° avg. (5.6)
Visibility9999 m
Phenomena:N/A
Clouds:Broken 120 Hf
Expected CloudBase > 2,000 ft AGL from Temp-Dew spread
Ceiling12,000 ft
Temp22°C (ISA +9)
Dew Point17°C (73% RH)
QNH1008 hPa
Density Alt2,477 ft
Elevation1,001 ft
Report Wrong Elevation
Raw Report
CYDN 190300Z AUTO 15003KT 9SM BKN120 22/17 A2976 RMK SLP077
DENSITY ALT 2200FT=

Extra information for CYDN:More info

Metar Taf Metar & Taf Last 4 Metars F.Rules Stats Wind Profile Meteogram Temp Stats Airport Information Weather charts Add Link Nearby VenuesMetar ALERT Operation Metar Decoded Social comments